Time;durP1;ratioP1;P1;durP2;ratioP2;P2;SDS_P1;SDS_P2;PMS_P1;PMS_P2;Temp;Humidity;BMP_temperature;BMP_pressure;BME280_temperature;BME280_humidity;BME280_pressure;Samples;Min_cycle;Max_cycle;Signal;HPM_P1;HPM_P2
2021/09/27 04:01:59;;;;;;;5.82;4.55;;;;;;;;;;5071781;28;20685;-41
2021/09/27 04:04:43;;;;;;;5.30;4.50;;;;;;;;;;5049351;28;20171;-42
2021/09/27 04:07:12;;;;;;;6.63;4.20;;;;;;;;;;5032114;28;20582;-42
2021/09/27 04:09:38;;;;;;;8.85;4.10;;;;;;;;;;5048597;28;20179;-42
2021/09/27 04:12:23;;;;;;;6.57;4.20;;;;;;;;;;5048636;28;20217;-42
2021/09/27 04:14:58;;;;;;;7.65;4.97;;;;;;;;;;5050195;28;20179;-42
2021/09/27 04:17:43;;;;;;;8.57;5.00;;;;;;;;;;5049556;28;20626;-42
2021/09/27 04:20:28;;;;;;;14.55;9.20;;;;;;;;;;5044668;28;20624;-42
2021/09/27 04:23:05;;;;;;;15.30;7.88;;;;;;;;;;5050533;28;20213;-42
2021/09/27 04:25:49;;;;;;;15.48;6.88;;;;;;;;;;5051149;28;20179;-43
2021/09/27 04:28:24;;;;;;;20.02;7.55;;;;;;;;;;5050825;28;20198;-42
2021/09/27 04:30:50;;;;;;;17.25;7.63;;;;;;;;;;5050756;28;20179;-42
2021/09/27 04:33:21;;;;;;;16.88;7.22;;;;;;;;;;5051030;28;20183;-42
2021/09/27 04:36:12;;;;;;;12.25;6.30;;;;;;;;;;5050847;28;20547;-42
2021/09/27 04:38:39;;;;;;;11.40;6.30;;;;;;;;;;5050975;28;20200;-42
2021/09/27 04:41:10;;;;;;;9.82;5.75;;;;;;;;;;5050251;28;20207;-42
2021/09/27 04:43:36;;;;;;;7.88;5.55;;;;;;;;;;5050828;28;20251;-42
2021/09/27 04:46:07;;;;;;;8.18;6.22;;;;;;;;;;5046390;28;20571;-42
2021/09/27 04:48:36;;;;;;;9.32;6.25;;;;;;;;;;5031388;28;20226;-42
2021/09/27 04:51:22;;;;;;;9.25;5.82;;;;;;;;;;5031469;28;20215;-42
2021/09/27 04:54:01;;;;;;;7.05;5.35;;;;;;;;;;5036164;28;20277;-42
2021/09/27 04:56:42;;;;;;;9.93;5.60;;;;;;;;;;5031514;28;20180;-42
2021/09/27 04:59:30;;;;;;;6.55;5.07;;;;;;;;;;5031405;28;20278;-42
2021/09/27 05:01:55;;;;;;;7.13;5.22;;;;;;;;;;5044103;28;20584;-42
2021/09/27 05:04:21;;;;;;;6.32;4.88;;;;;;;;;;5044014;28;20276;-42
2021/09/27 05:07:03;;;;;;;7.35;5.18;;;;;;;;;;5033210;28;20212;-42
2021/09/27 05:09:40;;;;;;;8.90;4.90;;;;;;;;;;5033434;28;20171;-42
2021/09/27 05:12:25;;;;;;;6.40;4.50;;;;;;;;;;5022750;28;20179;-42
2021/09/27 05:14:57;;;;;;;6.93;5.13;;;;;;;;;;5018024;28;20203;-42
2021/09/27 05:17:29;;;;;;;6.80;4.78;;;;;;;;;;5017435;28;20525;-42
2021/09/27 05:19:58;;;;;;;6.03;5.25;;;;;;;;;;5017548;28;20204;-42
2021/09/27 05:22:39;;;;;;;7.65;4.88;;;;;;;;;;5017355;28;20481;-43
2021/09/27 05:25:25;;;;;;;7.72;5.22;;;;;;;;;;5022518;28;20176;-42
2021/09/27 05:27:58;;;;;;;6.32;5.18;;;;;;;;;;5025945;28;20850;-42
2021/09/27 05:30:43;;;;;;;7.93;5.40;;;;;;;;;;5036186;28;20187;-42
2021/09/27 05:33:17;;;;;;;6.15;4.95;;;;;;;;;;5036637;28;20172;-42
2021/09/27 05:35:53;;;;;;;6.70;4.60;;;;;;;;;;5036378;28;20190;-43
2021/09/27 05:38:30;;;;;;;5.70;5.13;;;;;;;;;;5035041;28;20213;-43
2021/09/27 05:41:15;;;;;;;7.15;4.63;;;;;;;;;;5031060;28;20211;-43
2021/09/27 05:43:47;;;;;;;5.05;4.47;;;;;;;;;;5023869;28;20222;-43
2021/09/27 05:46:13;;;;;;;5.65;4.50;;;;;;;;;;5016987;28;20434;-42
2021/09/27 05:48:39;;;;;;;5.15;4.60;;;;;;;;;;5016798;28;20218;-42
2021/09/27 05:51:14;;;;;;;8.93;4.82;;;;;;;;;;5027192;28;20222;-43
2021/09/27 05:53:55;;;;;;;6.35;4.65;;;;;;;;;;5036540;28;20254;-42
2021/09/27 05:56:39;;;;;;;5.22;4.55;;;;;;;;;;5024179;28;20267;-42
2021/09/27 05:59:11;;;;;;;6.55;4.65;;;;;;;;;;5016714;28;20196;-42
2021/09/27 06:01:40;;;;;;;5.45;4.95;;;;;;;;;;5016825;28;20212;-42
2021/09/27 06:04:06;;;;;;;4.97;4.47;;;;;;;;;;5028666;28;20184;-42
2021/09/27 06:06:39;;;;;;;5.50;4.30;;;;;;;;;;5022034;28;20235;-42
2021/09/27 06:09:18;;;;;;;7.68;4.50;;;;;;;;;;5021952;28;20714;-42
2021/09/27 06:11:47;;;;;;;6.32;4.80;;;;;;;;;;5026417;28;20214;-42
2021/09/27 06:14:15;;;;;;;4.97;4.05;;;;;;;;;;5036060;28;20183;-42
2021/09/27 06:16:53;;;;;;;7.25;5.18;;;;;;;;;;5036418;28;20247;-42
2021/09/27 06:19:35;;;;;;;5.53;4.60;;;;;;;;;;5026990;28;20259;-42
2021/09/27 06:22:16;;;;;;;5.70;4.30;;;;;;;;;;5034907;28;20187;-42
2021/09/27 06:24:54;;;;;;;6.40;5.07;;;;;;;;;;5034823;28;20172;-43
2021/09/27 06:27:27;;;;;;;5.15;4.60;;;;;;;;;;5036407;28;20481;-43
2021/09/27 06:30:07;;;;;;;5.13;4.35;;;;;;;;;;5035362;28;20184;-42
2021/09/27 06:32:52;;;;;;;5.15;4.03;;;;;;;;;;5036225;28;20230;-42
2021/09/27 06:35:20;;;;;;;6.35;4.18;;;;;;;;;;5025716;28;20192;-42
2021/09/27 06:37:46;;;;;;;5.40;4.38;;;;;;;;;;5016290;28;20238;-42
2021/09/27 06:40:13;;;;;;;5.60;4.18;;;;;;;;;;5016407;28;20491;-42
2021/09/27 06:42:39;;;;;;;5.88;4.32;;;;;;;;;;5032722;28;20210;-42
2021/09/27 06:45:06;;;;;;;4.72;4.32;;;;;;;;;;5035081;28;20325;-42
2021/09/27 06:47:32;;;;;;;6.57;4.22;;;;;;;;;;5035863;28;20194;-42
2021/09/27 06:50:00;;;;;;;5.18;4.53;;;;;;;;;;5034717;28;20258;-42
2021/09/27 06:52:26;;;;;;;6.53;4.40;;;;;;;;;;5035592;28;20274;-42
2021/09/27 06:54:52;;;;;;;6.05;4.38;;;;;;;;;;5034774;28;20559;-42
2021/09/27 06:57:18;;;;;;;7.20;4.45;;;;;;;;;;5016701;28;20184;-42
2021/09/27 06:59:44;;;;;;;4.75;4.30;;;;;;;;;;5026816;28;20200;-42
2021/09/27 07:02:10;;;;;;;4.60;4.20;;;;;;;;;;5034186;28;20203;-42
2021/09/27 07:04:36;;;;;;;4.75;4.28;;;;;;;;;;5034513;28;20278;-42
2021/09/27 07:07:03;;;;;;;5.47;4.50;;;;;;;;;;5040434;28;20254;-42
2021/09/27 07:09:28;;;;;;;5.03;4.20;;;;;;;;;;5022382;28;20177;-42
2021/09/27 07:11:54;;;;;;;4.70;4.28;;;;;;;;;;5015404;28;20219;-42
2021/09/27 07:14:21;;;;;;;3.92;3.53;;;;;;;;;;5014996;28;20176;-42
2021/09/27 07:16:47;;;;;;;5.32;4.82;;;;;;;;;;5015404;28;20191;-42
2021/09/27 07:19:13;;;;;;;5.60;4.82;;;;;;;;;;5023639;28;20186;-42
2021/09/27 07:21:40;;;;;;;5.32;3.92;;;;;;;;;;5034035;28;20214;-42
2021/09/27 07:24:07;;;;;;;5.35;4.75;;;;;;;;;;5034633;28;20250;-42
2021/09/27 07:26:34;;;;;;;7.80;4.82;;;;;;;;;;5016647;28;20184;-42
2021/09/27 07:29:02;;;;;;;6.20;4.72;;;;;;;;;;5020703;28;20180;-42
2021/09/27 07:31:30;;;;;;;5.20;4.38;;;;;;;;;;5018914;28;20180;-43
2021/09/27 07:33:57;;;;;;;6.07;4.32;;;;;;;;;;5014657;28;20184;-42
2021/09/27 07:36:23;;;;;;;5.70;4.70;;;;;;;;;;5014676;28;20527;-42
2021/09/27 07:38:49;;;;;;;4.95;4.50;;;;;;;;;;5014870;28;20271;-42
2021/09/27 07:41:15;;;;;;;5.00;4.53;;;;;;;;;;5015167;28;20287;-42
2021/09/27 07:43:41;;;;;;;6.13;4.75;;;;;;;;;;5033351;28;20184;-42
2021/09/27 07:46:07;;;;;;;6.38;4.82;;;;;;;;;;5024024;28;20185;-42
2021/09/27 07:48:33;;;;;;;5.53;4.57;;;;;;;;;;5014917;28;20246;-42
2021/09/27 07:50:59;;;;;;;5.72;4.80;;;;;;;;;;5024175;28;20184;-42
2021/09/27 07:53:26;;;;;;;6.18;4.90;;;;;;;;;;5027896;28;20596;-42
2021/09/27 07:55:52;;;;;;;7.40;4.70;;;;;;;;;;5014893;28;20172;-42
2021/09/27 07:58:18;;;;;;;5.72;5.13;;;;;;;;;;5028680;28;20188;-42
2021/09/27 08:00:45;;;;;;;5.80;5.10;;;;;;;;;;5033378;28;20314;-42
2021/09/27 08:03:11;;;;;;;6.63;5.03;;;;;;;;;;5033668;28;20187;-42
2021/09/27 08:05:38;;;;;;;5.35;4.85;;;;;;;;;;5030403;28;20205;-42
2021/09/27 08:08:05;;;;;;;6.88;4.75;;;;;;;;;;5014465;28;20199;-42
2021/09/27 08:10:31;;;;;;;5.22;4.53;;;;;;;;;;5024432;28;20586;-42
2021/09/27 08:12:58;;;;;;;5.75;5.05;;;;;;;;;;5033989;28;20546;-42
2021/09/27 08:15:29;;;;;;;6.25;5.13;;;;;;;;;;5034193;28;20203;-42
2021/09/27 08:17:56;;;;;;;5.53;5.00;;;;;;;;;;5030713;28;20670;-42
2021/09/27 08:20:34;;;;;;;5.75;5.25;;;;;;;;;;5030329;28;20195;-42
2021/09/27 08:23:00;;;;;;;7.15;5.15;;;;;;;;;;5033884;28;20176;-42
2021/09/27 08:25:27;;;;;;;5.70;4.95;;;;;;;;;;5028733;28;20547;-42
2021/09/27 08:27:54;;;;;;;5.50;4.97;;;;;;;;;;5014769;28;20865;-42
2021/09/27 08:30:31;;;;;;;7.00;5.15;;;;;;;;;;5016375;28;20416;-42
2021/09/27 08:32:59;;;;;;;6.40;5.65;;;;;;;;;;5033801;28;20183;-42
2021/09/27 08:35:26;;;;;;;5.57;5.07;;;;;;;;;;5033928;28;20187;-42
2021/09/27 08:37:54;;;;;;;7.72;5.20;;;;;;;;;;5034016;28;20259;-42
2021/09/27 08:40:38;;;;;;;7.88;6.03;;;;;;;;;;5032751;28;20195;-42
2021/09/27 08:43:13;;;;;;;7.82;6.57;;;;;;;;;;5033503;28;20224;-42
2021/09/27 08:45:41;;;;;;;6.00;5.40;;;;;;;;;;5033926;28;20171;-42
2021/09/27 08:48:25;;;;;;;7.45;6.13;;;;;;;;;;5037099;28;20222;-43
2021/09/27 08:50:51;;;;;;;6.13;5.53;;;;;;;;;;5036979;28;20225;-42
2021/09/27 08:53:33;;;;;;;6.38;5.57;;;;;;;;;;5034696;28;20510;-42
2021/09/27 08:56:05;;;;;;;6.40;5.80;;;;;;;;;;5026858;28;20274;-42
2021/09/27 08:58:45;;;;;;;7.90;6.03;;;;;;;;;;5037690;28;20559;-42
2021/09/27 09:01:13;;;;;;;7.07;6.40;;;;;;;;;;5036799;28;20199;-42
2021/09/27 09:03:39;;;;;;;6.72;5.90;;;;;;;;;;5032480;28;20253;-42
2021/09/27 09:06:12;;;;;;;6.97;6.28;;;;;;;;;;5024574;28;20177;-42
2021/09/27 09:08:44;;;;;;;6.30;5.70;;;;;;;;;;5017441;28;20251;-42
2021/09/27 09:11:13;;;;;;;7.22;6.53;;;;;;;;;;5018046;28;20226;-42
2021/09/27 09:13:39;;;;;;;8.68;7.47;;;;;;;;;;5017223;28;20177;-42
2021/09/27 09:16:07;;;;;;;7.20;6.30;;;;;;;;;;5027419;28;20198;-42
2021/09/27 09:18:37;;;;;;;7.47;6.78;;;;;;;;;;5034030;28;20779;-42
2021/09/27 09:21:07;;;;;;;7.28;6.53;;;;;;;;;;5017382;28;20266;-42
2021/09/27 09:23:35;;;;;;;7.20;6.50;;;;;;;;;;5034826;28;20474;-42
2021/09/27 09:26:05;;;;;;;6.97;6.22;;;;;;;;;;5036916;28;20183;-42
2021/09/27 09:28:31;;;;;;;7.43;6.40;;;;;;;;;;5037053;28;20194;-42
2021/09/27 09:31:07;;;;;;;7.68;6.88;;;;;;;;;;5027157;28;20181;-42
2021/09/27 09:33:41;;;;;;;7.22;6.57;;;;;;;;;;5016532;28;20199;-42
2021/09/27 09:36:09;;;;;;;7.47;6.10;;;;;;;;;;5028149;28;20194;-42
2021/09/27 09:38:36;;;;;;;8.60;7.80;;;;;;;;;;5036571;28;20192;-42
2021/09/27 09:41:02;;;;;;;8.48;7.70;;;;;;;;;;5036190;28;20207;-42
2021/09/27 09:43:30;;;;;;;7.72;7.03;;;;;;;;;;5036499;28;20165;-42
2021/09/27 09:46:10;;;;;;;8.05;7.22;;;;;;;;;;5036224;28;20179;-42
2021/09/27 09:48:38;;;;;;;8.50;7.70;;;;;;;;;;5036713;28;20167;-42
2021/09/27 09:51:39;;;;;;;8.15;7.35;;;;;;;;;;5025079;28;20184;-42
2021/09/27 09:54:19;;;;;;;8.38;7.57;;;;;;;;;;5009189;28;20210;-42
2021/09/27 09:56:47;;;;;;;8.65;7.63;;;;;;;;;;5016637;28;20261;-42
2021/09/27 09:59:17;;;;;;;7.97;7.18;;;;;;;;;;5024834;28;20200;-42
2021/09/27 10:01:43;;;;;;;8.75;7.95;;;;;;;;;;5034912;28;20227;-42
2021/09/27 10:04:11;;;;;;;8.65;7.80;;;;;;;;;;5034716;28;20207;-42
2021/09/27 10:06:37;;;;;;;9.38;8.48;;;;;;;;;;5036568;28;20246;-42
2021/09/27 10:09:06;;;;;;;8.27;7.38;;;;;;;;;;5030483;28;20599;-42
2021/09/27 10:11:32;;;;;;;8.73;7.93;;;;;;;;;;5016999;28;20504;-42
2021/09/27 10:13:58;;;;;;;7.78;7.07;;;;;;;;;;5016238;28;20251;-42
2021/09/27 10:16:39;;;;;;;9.45;8.45;;;;;;;;;;5029383;28;20575;-42
2021/09/27 10:19:23;;;;;;;9.35;8.45;;;;;;;;;;5030991;28;20183;-42
2021/09/27 10:21:57;;;;;;;9.20;8.25;;;;;;;;;;5034325;28;20195;-42
2021/09/27 10:24:30;;;;;;;10.02;9.02;;;;;;;;;;5036014;28;20176;-43
2021/09/27 10:26:57;;;;;;;9.48;8.63;;;;;;;;;;5036132;28;20218;-42
2021/09/27 10:29:28;;;;;;;9.48;8.40;;;;;;;;;;5036344;28;20207;-42
2021/09/27 10:32:03;;;;;;;9.70;8.80;;;;;;;;;;5034949;28;20233;-42
2021/09/27 10:34:32;;;;;;;9.80;8.85;;;;;;;;;;5028145;28;20571;-42
2021/09/27 10:37:05;;;;;;;9.13;8.20;;;;;;;;;;5016441;28;20564;-42
2021/09/27 10:39:31;;;;;;;10.02;8.80;;;;;;;;;;5016346;28;20200;-42
2021/09/27 10:42:11;;;;;;;11.15;10.05;;;;;;;;;;5016388;28;20567;-42
2021/09/27 10:44:46;;;;;;;9.82;8.90;;;;;;;;;;5015595;28;20555;-42
2021/09/27 10:47:19;;;;;;;10.77;9.25;;;;;;;;;;5027279;28;20175;-42
2021/09/27 10:49:48;;;;;;;11.25;9.95;;;;;;;;;;5016158;28;20177;-42
2021/09/27 10:52:17;;;;;;;9.35;8.48;;;;;;;;;;5035965;28;20182;-42
2021/09/27 10:54:43;;;;;;;10.57;9.48;;;;;;;;;;5034985;28;20203;-42
2021/09/27 10:57:32;;;;;;;11.00;9.18;;;;;;;;;;5016866;28;20993;-42
2021/09/27 10:59:59;;;;;;;9.77;8.88;;;;;;;;;;5016721;28;20212;-42
2021/09/27 11:02:29;;;;;;;9.48;8.57;;;;;;;;;;5034998;28;20195;-42
2021/09/27 11:05:16;;;;;;;8.57;7.78;;;;;;;;;;5034133;28;20259;-43
2021/09/27 11:07:45;;;;;;;9.27;8.38;;;;;;;;;;5034680;28;20262;-42
2021/09/27 11:10:30;;;;;;;9.52;8.63;;;;;;;;;;5022050;28;20185;-42
2021/09/27 11:12:56;;;;;;;9.40;8.50;;;;;;;;;;5018826;28;20199;-43
2021/09/27 11:15:30;;;;;;;9.52;8.52;;;;;;;;;;5019902;28;20180;-43
2021/09/27 11:18:14;;;;;;;9.13;8.23;;;;;;;;;;5043180;28;20184;-42
2021/09/27 11:20:50;;;;;;;10.70;8.52;;;;;;;;;;5022752;28;20231;-42
2021/09/27 11:23:22;;;;;;;9.20;8.30;;;;;;;;;;5034706;28;20174;-42
2021/09/27 11:25:50;;;;;;;8.52;7.72;;;;;;;;;;5016756;28;20180;-42
2021/09/27 11:28:25;;;;;;;8.07;7.22;;;;;;;;;;5017472;28;20188;-42
2021/09/27 11:31:10;;;;;;;8.27;7.47;;;;;;;;;;5031792;28;20175;-42
2021/09/27 11:33:36;;;;;;;8.27;7.47;;;;;;;;;;5024242;28;20203;-42
2021/09/27 11:36:06;;;;;;;9.70;7.43;;;;;;;;;;5025474;28;20188;-42
2021/09/27 11:38:38;;;;;;;9.68;7.38;;;;;;;;;;5016480;28;20211;-42
2021/09/27 11:41:10;;;;;;;8.27;7.47;;;;;;;;;;5023699;28;20199;-42
2021/09/27 11:43:46;;;;;;;8.32;7.47;;;;;;;;;;5033765;28;20287;-43
2021/09/27 11:46:15;;;;;;;8.43;7.45;;;;;;;;;;5023700;28;20187;-43
2021/09/27 11:48:44;;;;;;;6.95;6.35;;;;;;;;;;5033702;28;20269;-42
2021/09/27 11:51:12;;;;;;;8.25;7.30;;;;;;;;;;5033336;28;20688;-42
2021/09/27 11:53:50;;;;;;;7.30;6.60;;;;;;;;;;5034107;28;20168;-42
2021/09/27 11:56:20;;;;;;;7.18;6.47;;;;;;;;;;5033913;28;20194;-42
2021/09/27 11:59:07;;;;;;;7.80;6.53;;;;;;;;;;5033270;28;20204;-42
2021/09/27 12:01:44;;;;;;;7.70;6.80;;;;;;;;;;5033781;28;20207;-42
2021/09/27 12:04:25;;;;;;;7.43;6.68;;;;;;;;;;5033889;28;20179;-42
2021/09/27 12:06:54;;;;;;;6.57;5.97;;;;;;;;;;5017598;28;20676;-42
2021/09/27 12:09:27;;;;;;;8.15;7.35;;;;;;;;;;5015915;28;20188;-42
2021/09/27 12:11:54;;;;;;;7.80;7.03;;;;;;;;;;5021211;28;20179;-42
2021/09/27 12:14:24;;;;;;;8.30;7.50;;;;;;;;;;5033912;28;20210;-42
2021/09/27 12:16:53;;;;;;;7.10;6.43;;;;;;;;;;5034012;28;20186;-42
2021/09/27 12:19:22;;;;;;;7.97;6.60;;;;;;;;;;5026365;28;20192;-42
2021/09/27 12:21:51;;;;;;;7.68;6.82;;;;;;;;;;5015727;28;20204;-42
2021/09/27 12:24:22;;;;;;;7.18;6.57;;;;;;;;;;5018010;28;20259;-42
2021/09/27 12:26:51;;;;;;;7.40;6.70;;;;;;;;;;5018463;28;20645;-42
2021/09/27 12:29:24;;;;;;;6.85;6.25;;;;;;;;;;5018752;28;20246;-42
2021/09/27 12:31:50;;;;;;;7.05;6.15;;;;;;;;;;5018559;28;20195;-42
2021/09/27 12:34:19;;;;;;;7.18;6.47;;;;;;;;;;5017929;28;20192;-42
2021/09/27 12:36:45;;;;;;;7.05;6.35;;;;;;;;;;5033745;28;20610;-42
2021/09/27 12:39:11;;;;;;;7.50;6.75;;;;;;;;;;5037216;28;20238;-42
2021/09/27 12:41:39;;;;;;;6.85;6.25;;;;;;;;;;5018819;28;20776;-42
2021/09/27 12:44:13;;;;;;;8.80;6.47;;;;;;;;;;5017875;28;20184;-43
2021/09/27 12:46:40;;;;;;;7.00;6.38;;;;;;;;;;5018151;28;20207;-42
2021/09/27 12:49:09;;;;;;;6.88;6.18;;;;;;;;;;5022812;28;20180;-42
2021/09/27 12:51:43;;;;;;;6.90;6.20;;;;;;;;;;5046481;28;20179;-42
2021/09/27 12:54:27;;;;;;;7.15;6.45;;;;;;;;;;5039075;28;20689;-43
2021/09/27 12:56:54;;;;;;;9.48;6.47;;;;;;;;;;5036472;28;20499;-43
2021/09/27 12:59:21;;;;;;;9.32;6.28;;;;;;;;;;5025605;28;20493;-43
2021/09/27 13:01:57;;;;;;;6.80;6.20;;;;;;;;;;5031298;28;20254;-43
2021/09/27 13:04:29;;;;;;;8.00;6.53;;;;;;;;;;5032828;28;20191;-42
2021/09/27 13:06:55;;;;;;;7.13;6.43;;;;;;;;;;5020932;28;20208;-42
2021/09/27 13:09:22;;;;;;;7.85;6.93;;;;;;;;;;5029567;28;20215;-42
2021/09/27 13:11:51;;;;;;;9.32;7.35;;;;;;;;;;5035585;28;20180;-42
2021/09/27 13:14:17;;;;;;;8.85;6.40;;;;;;;;;;5025445;28;20588;-43
2021/09/27 13:16:45;;;;;;;8.10;7.30;;;;;;;;;;5021510;28;20179;-43
2021/09/27 13:19:31;;;;;;;8.00;7.20;;;;;;;;;;5023025;28;20201;-42
2021/09/27 13:21:58;;;;;;;7.95;7.18;;;;;;;;;;5017907;28;20208;-42
2021/09/27 13:24:29;;;;;;;8.35;6.82;;;;;;;;;;5016552;28;20169;-43
2021/09/27 13:26:55;;;;;;;8.07;7.28;;;;;;;;;;5016624;28;20177;-43
2021/09/27 13:29:31;;;;;;;9.35;6.93;;;;;;;;;;5020069;28;20238;-43
2021/09/27 13:32:13;;;;;;;8.20;7.40;;;;;;;;;;5019634;28;20267;-43
2021/09/27 13:34:46;;;;;;;8.20;7.40;;;;;;;;;;5016582;28;20587;-43
2021/09/27 13:37:37;;;;;;;7.53;6.68;;;;;;;;;;5034892;28;20171;-43
2021/09/27 13:40:18;;;;;;;7.72;6.97;;;;;;;;;;5029527;28;20215;-43
2021/09/27 13:42:49;;;;;;;8.80;7.05;;;;;;;;;;5032130;28;20259;-43
2021/09/27 13:45:38;;;;;;;8.23;7.40;;;;;;;;;;5031984;28;20199;-42
2021/09/27 13:48:05;;;;;;;9.07;6.53;;;;;;;;;;5023408;28;20219;-42
2021/09/27 13:50:31;;;;;;;11.45;6.88;;;;;;;;;;5027568;28;20183;-42
2021/09/27 13:53:06;;;;;;;13.18;6.78;;;;;;;;;;5024148;28;20486;-43
2021/09/27 13:55:32;;;;;;;7.32;6.20;;;;;;;;;;5029262;28;20183;-43
2021/09/27 13:57:58;;;;;;;13.25;6.30;;;;;;;;;;5017442;28;20195;-43
2021/09/27 14:00:24;;;;;;;11.60;6.60;;;;;;;;;;5016798;28;20223;-43
2021/09/27 14:02:50;;;;;;;10.23;6.50;;;;;;;;;;5033180;28;20270;-43
2021/09/27 14:05:16;;;;;;;7.43;6.55;;;;;;;;;;5024899;28;20276;-43
2021/09/27 14:07:43;;;;;;;11.10;6.13;;;;;;;;;;5021091;28;20598;-43
2021/09/27 14:10:10;;;;;;;12.43;6.60;;;;;;;;;;5036308;28;20618;-43
2021/09/27 14:12:36;;;;;;;8.40;5.50;;;;;;;;;;5028654;28;20276;-43
2021/09/27 14:15:03;;;;;;;8.85;6.25;;;;;;;;;;5022511;28;20526;-43
2021/09/27 14:17:29;;;;;;;8.45;5.75;;;;;;;;;;5035172;28;20176;-43
2021/09/27 14:19:55;;;;;;;9.30;6.53;;;;;;;;;;5026593;28;20192;-42
2021/09/27 14:22:21;;;;;;;10.02;6.30;;;;;;;;;;5036239;28;20176;-43
2021/09/27 14:24:48;;;;;;;8.88;6.53;;;;;;;;;;5028745;28;20529;-42
2021/09/27 14:27:14;;;;;;;7.75;6.13;;;;;;;;;;5026554;28;20203;-42
2021/09/27 14:29:40;;;;;;;9.27;6.25;;;;;;;;;;5016489;28;20192;-43
2021/09/27 14:32:06;;;;;;;9.13;6.22;;;;;;;;;;5016432;28;20610;-43
2021/09/27 14:34:32;;;;;;;12.63;6.70;;;;;;;;;;5015765;28;20311;-43
2021/09/27 14:36:58;;;;;;;7.55;6.18;;;;;;;;;;5016428;28;20192;-43
2021/09/27 14:39:25;;;;;;;7.90;6.45;;;;;;;;;;5016182;28;20181;-43
2021/09/27 14:41:52;;;;;;;10.38;6.90;;;;;;;;;;5015860;28;20203;-43
2021/09/27 14:44:18;;;;;;;7.20;6.43;;;;;;;;;;5014959;28;20272;-43
2021/09/27 14:46:46;;;;;;;8.93;6.60;;;;;;;;;;5030506;28;20190;-43
2021/09/27 14:49:12;;;;;;;8.63;6.50;;;;;;;;;;5035576;28;20180;-43
2021/09/27 14:51:38;;;;;;;7.18;6.47;;;;;;;;;;5035516;28;20176;-43
2021/09/27 14:54:04;;;;;;;6.85;6.03;;;;;;;;;;5034460;28;20183;-43
2021/09/27 14:56:30;;;;;;;8.35;6.72;;;;;;;;;;5016564;28;20568;-43
2021/09/27 14:58:57;;;;;;;6.63;6.00;;;;;;;;;;5015865;28;20180;-43
2021/09/27 15:01:24;;;;;;;9.05;7.00;;;;;;;;;;5015878;28;20274;-43
2021/09/27 15:03:50;;;;;;;6.57;5.88;;;;;;;;;;5026828;28;20208;-43
2021/09/27 15:06:20;;;;;;;7.22;6.50;;;;;;;;;;5028901;28;20226;-43
2021/09/27 15:08:46;;;;;;;9.98;6.82;;;;;;;;;;5035448;28;20178;-43
2021/09/27 15:11:12;;;;;;;6.45;5.93;;;;;;;;;;5035235;28;20179;-43
2021/09/27 15:13:38;;;;;;;8.73;6.70;;;;;;;;;;5033226;28;20267;-43
2021/09/27 15:16:05;;;;;;;8.15;6.03;;;;;;;;;;5029566;28;20187;-43
2021/09/27 15:18:31;;;;;;;7.15;6.45;;;;;;;;;;5033863;28;20287;-43
2021/09/27 15:20:58;;;;;;;8.45;7.25;;;;;;;;;;5025729;28;20202;-43
2021/09/27 15:23:31;;;;;;;6.93;6.22;;;;;;;;;;5030583;28;20560;-43
2021/09/27 15:26:01;;;;;;;9.15;6.90;;;;;;;;;;5017518;28;20192;-43
2021/09/27 15:28:27;;;;;;;7.97;7.10;;;;;;;;;;5034976;28;20163;-43
2021/09/27 15:30:54;;;;;;;9.65;7.32;;;;;;;;;;5033494;28;20937;-43
2021/09/27 15:33:20;;;;;;;9.18;7.35;;;;;;;;;;5034739;28;20172;-43
2021/09/27 15:35:47;;;;;;;7.18;6.45;;;;;;;;;;5027052;28;20572;-43
2021/09/27 15:38:14;;;;;;;10.02;7.03;;;;;;;;;;5015190;28;20586;-43
2021/09/27 15:40:40;;;;;;;8.73;7.82;;;;;;;;;;5023647;28;20208;-43
2021/09/27 15:43:07;;;;;;;11.30;7.45;;;;;;;;;;5021649;28;20219;-43
2021/09/27 15:45:33;;;;;;;8.38;7.15;;;;;;;;;;5016204;28;20493;-43
2021/09/27 15:47:59;;;;;;;7.47;6.72;;;;;;;;;;5015172;28;20291;-43
2021/09/27 15:50:25;;;;;;;9.23;6.95;;;;;;;;;;5015128;28;20598;-43
2021/09/27 15:52:51;;;;;;;7.88;7.07;;;;;;;;;;5024461;28;20180;-43
2021/09/27 15:55:17;;;;;;;8.30;7.40;;;;;;;;;;5033367;28;20211;-43
2021/09/27 15:57:43;;;;;;;8.32;7.00;;;;;;;;;;5032152;28;20244;-43
2021/09/27 16:00:09;;;;;;;7.07;6.38;;;;;;;;;;5031282;28;20579;-43
2021/09/27 16:02:35;;;;;;;7.50;6.60;;;;;;;;;;5029782;28;20191;-43
2021/09/27 16:05:01;;;;;;;7.60;6.90;;;;;;;;;;5032095;28;20200;-43
2021/09/27 16:07:28;;;;;;;7.47;6.78;;;;;;;;;;5033640;28;20183;-43
2021/09/27 16:09:55;;;;;;;10.32;6.53;;;;;;;;;;5027032;28;20582;-43
2021/09/27 16:12:21;;;;;;;8.82;6.43;;;;;;;;;;5012886;28;20208;-43
2021/09/27 16:14:47;;;;;;;7.45;6.75;;;;;;;;;;5019498;28;20589;-43
2021/09/27 16:17:13;;;;;;;8.05;7.32;;;;;;;;;;5033423;28;20218;-43
2021/09/27 16:19:40;;;;;;;6.43;5.93;;;;;;;;;;5033390;28;20208;-43
2021/09/27 16:22:06;;;;;;;6.38;5.88;;;;;;;;;;5014591;28;20726;-43
2021/09/27 16:24:32;;;;;;;7.60;6.90;;;;;;;;;;5014141;28;20172;-43
2021/09/27 16:26:58;;;;;;;8.48;6.30;;;;;;;;;;5014710;28;20208;-43
2021/09/27 16:29:25;;;;;;;6.60;6.00;;;;;;;;;;5013951;28;20258;-43
2021/09/27 16:31:58;;;;;;;7.03;6.40;;;;;;;;;;5014547;28;20571;-43
2021/09/27 16:34:25;;;;;;;6.75;6.15;;;;;;;;;;5013943;28;20259;-43
2021/09/27 16:36:53;;;;;;;7.03;6.32;;;;;;;;;;5014695;28;20187;-43
2021/09/27 16:39:19;;;;;;;8.10;7.30;;;;;;;;;;5014424;28;20180;-43
2021/09/27 16:41:49;;;;;;;8.98;6.88;;;;;;;;;;5014402;28;20647;-43
2021/09/27 16:44:16;;;;;;;8.05;7.25;;;;;;;;;;5014058;28;20827;-43
2021/09/27 16:46:43;;;;;;;9.27;7.78;;;;;;;;;;5015582;28;20180;-43
2021/09/27 16:49:10;;;;;;;70.45;37.53;;;;;;;;;;5025202;28;20212;-43
2021/09/27 16:51:37;;;;;;;151.55;76.55;;;;;;;;;;5033758;28;20442;-43
2021/09/27 16:54:03;;;;;;;288.63;141.48;;;;;;;;;;5030933;28;20184;-43
2021/09/27 16:56:29;;;;;;;340.00;172.45;;;;;;;;;;5014478;28;20247;-43
2021/09/27 16:58:56;;;;;;;295.30;151.52;;;;;;;;;;5014973;28;20192;-43
2021/09/27 17:01:23;;;;;;;267.70;140.40;;;;;;;;;;5028795;28;20552;-43
2021/09/27 17:03:49;;;;;;;210.10;105.65;;;;;;;;;;5028656;28;20188;-43
2021/09/27 17:06:15;;;;;;;179.10;93.90;;;;;;;;;;5022841;28;20172;-43
2021/09/27 17:08:41;;;;;;;166.27;82.10;;;;;;;;;;5022443;28;20194;-43
2021/09/27 17:11:08;;;;;;;159.63;81.47;;;;;;;;;;5031125;28;20183;-43
2021/09/27 17:13:37;;;;;;;151.90;77.63;;;;;;;;;;5026885;28;20302;-43
2021/09/27 17:18:48;;;;;;;111.53;56.92;;;;;;;;;;5020555;28;20202;-43
2021/09/27 17:21:14;;;;;;;112.20;59.67;;;;;;;;;;5022249;28;20207;-43
2021/09/27 17:23:43;;;;;;;124.03;61.03;;;;;;;;;;5023496;28;20176;-43
2021/09/27 17:26:10;;;;;;;116.47;57.53;;;;;;;;;;5030503;28;20178;-43
2021/09/27 17:28:38;;;;;;;101.00;53.83;;;;;;;;;;5035180;28;20215;-43
2021/09/27 17:31:07;;;;;;;107.50;55.65;;;;;;;;;;5037043;28;20642;-43
2021/09/27 17:33:37;;;;;;;100.63;52.00;;;;;;;;;;5036809;28;20187;-43
2021/09/27 17:36:04;;;;;;;89.68;48.50;;;;;;;;;;5035444;28;20229;-43
2021/09/27 17:38:30;;;;;;;76.00;41.22;;;;;;;;;;5027300;28;20595;-43
2021/09/27 17:40:56;;;;;;;72.25;38.88;;;;;;;;;;5030552;28;20624;-43
2021/09/27 17:43:22;;;;;;;63.67;37.10;;;;;;;;;;5022032;28;20789;-43
2021/09/27 17:45:48;;;;;;;57.50;34.17;;;;;;;;;;5021712;28;20563;-43
2021/09/27 17:48:14;;;;;;;66.93;34.97;;;;;;;;;;5028459;28;20236;-43
2021/09/27 17:50:41;;;;;;;59.67;33.97;;;;;;;;;;5016924;28;20188;-43
2021/09/27 17:53:10;;;;;;;65.80;36.83;;;;;;;;;;5017647;28;20230;-43
2021/09/27 17:55:39;;;;;;;63.03;34.58;;;;;;;;;;5019286;28;20267;-43
2021/09/27 17:58:06;;;;;;;59.67;32.83;;;;;;;;;;5016900;28;20242;-43
2021/09/27 18:00:32;;;;;;;58.47;32.45;;;;;;;;;;5027291;28;20214;-43
2021/09/27 18:02:58;;;;;;;64.05;32.75;;;;;;;;;;5035960;28;20191;-43
2021/09/27 18:05:24;;;;;;;55.80;31.13;;;;;;;;;;5031279;28;20185;-43
2021/09/27 18:07:50;;;;;;;52.85;29.58;;;;;;;;;;5016912;28;20177;-43
2021/09/27 18:10:16;;;;;;;53.60;29.98;;;;;;;;;;5024099;28;20172;-43
2021/09/27 18:12:43;;;;;;;51.60;28.08;;;;;;;;;;5024139;28;20193;-43
2021/09/27 18:15:11;;;;;;;56.95;28.90;;;;;;;;;;5015897;28;20177;-43
2021/09/27 18:17:37;;;;;;;48.05;27.42;;;;;;;;;;5016610;28;20256;-43
2021/09/27 18:20:05;;;;;;;50.58;27.58;;;;;;;;;;5035222;28;20226;-43
2021/09/27 18:22:31;;;;;;;48.03;27.33;;;;;;;;;;5016386;28;20169;-43
2021/09/27 18:24:58;;;;;;;44.08;25.98;;;;;;;;;;5017196;28;20448;-43
2021/09/27 18:27:23;;;;;;;44.60;25.50;;;;;;;;;;5022419;28;20171;-43
2021/09/27 18:29:50;;;;;;;42.97;24.58;;;;;;;;;;5027177;28;20446;-43
2021/09/27 18:32:16;;;;;;;41.30;23.75;;;;;;;;;;5021379;28;20185;-43
2021/09/27 18:34:42;;;;;;;38.85;23.70;;;;;;;;;;5015751;28;20171;-42
2021/09/27 18:37:08;;;;;;;41.20;23.92;;;;;;;;;;5029975;28;20199;-43
2021/09/27 18:39:34;;;;;;;37.97;23.40;;;;;;;;;;5033906;28;20211;-43
2021/09/27 18:42:00;;;;;;;36.80;22.80;;;;;;;;;;5021752;28;20603;-43
2021/09/27 18:44:27;;;;;;;36.58;22.92;;;;;;;;;;5019496;28;20599;-43
2021/09/27 18:46:53;;;;;;;35.90;21.55;;;;;;;;;;5017912;28;20177;-43
2021/09/27 18:49:22;;;;;;;35.95;21.50;;;;;;;;;;5018175;28;20203;-43
2021/09/27 18:51:49;;;;;;;39.75;22.00;;;;;;;;;;5015891;28;20580;-43
2021/09/27 18:54:15;;;;;;;38.42;20.80;;;;;;;;;;5022496;28;20563;-43
2021/09/27 18:56:41;;;;;;;36.47;22.13;;;;;;;;;;5023262;28;20183;-43
2021/09/27 18:59:07;;;;;;;45.58;25.45;;;;;;;;;;5021248;28;20187;-43